PWSweather.com
Personal Weather Stations
Station Observations
948974
Valtournenche, AostaIT 11028

ValtournencheAostaIT 11028

Lat: 45.877222, Lon: 7.625556

Elevation: 5085.3018

Station Type: PCE-FWS 20

http://www.cdso.it

High Low Average
Temperature 47.0°F8.3°C 31.5°F-0.3°C 36.6°F2.6°C
Dew Point 44.3°F6.8°C 13.2°F-10.4°C 29.6°F-1.3°C
Winds 6.0 mph 9.7 kmh Calm Calm 2.0 mph SE3.2 kmh SE
Wind Gusts 15.0 mph24.1 kmh -- 4.0 mph6.4 kmh
Humidity 99% 43% 78%
Pressure 30.00 in1015.9 mb 29.68 in1005.1 mb -
Precipitation 0.31 in7.9 mm - -
Hour Temp Dew Point Humidity Winds Wind Gusts Pressure Precip Precip Rate Daily Precip Total
12:21 AM 33.3°F0.7°C 32.2°F0.1°C 96% 1.0 mph NE1.6 kmh NE 2.0 mph3.2 kmh 29.98 in1015.2 mb 0.00 in0.0 mm 0.00 in0.0 mm 0.00 in0.0 mm
12:42 AM 33.1°F0.6°C 32.1°F0.1°C 96% 2.0 mph NE3.2 kmh NE 4.0 mph6.4 kmh 29.98 in1015.2 mb 0.00 in0.0 mm 0.00 in0.0 mm 0.00 in0.0 mm
01:21 AM 33.0°F0.6°C 32.5°F0.3°C 98% 2.0 mph NE3.2 kmh NE 5.0 mph8.0 kmh 29.95 in1014.2 mb 0.00 in0.0 mm 0.00 in0.0 mm 0.00 in0.0 mm
01:42 AM 33.3°F0.7°C 32.8°F0.4°C 98% 1.0 mph N1.6 kmh N 4.0 mph6.4 kmh 29.94 in1013.9 mb 0.00 in0.0 mm 0.00 in0.0 mm 0.00 in0.0 mm
02:03 AM 33.3°F0.7°C 32.8°F0.4°C 98% 2.0 mph SE3.2 kmh SE 4.0 mph6.4 kmh 29.93 in1013.5 mb 0.00 in0.0 mm 0.00 in0.0 mm 0.00 in0.0 mm
02:21 AM 33.4°F0.8°C 33.0°F0.6°C 98% 1.0 mph NW1.6 kmh NW 2.0 mph3.2 kmh 29.91 in1012.9 mb 0.00 in0.0 mm 0.00 in0.0 mm 0.00 in0.0 mm
02:42 AM 33.3°F0.7°C 32.8°F0.4°C 98% Calm Calm 2.0 mph3.2 kmh 29.91 in1012.9 mb 0.00 in0.0 mm 0.00 in0.0 mm 0.00 in0.0 mm
03:03 AM 33.2°F0.7°C 32.7°F0.4°C 98% 1.0 mph 1.6 kmh 2.0 mph3.2 kmh 29.90 in1012.5 mb 0.00 in0.0 mm 0.00 in0.0 mm 0.00 in0.0 mm
03:21 AM 32.9°F0.5°C 32.4°F0.2°C 98% Calm Calm 2.0 mph3.2 kmh 29.89 in1012.2 mb 0.00 in0.0 mm 0.00 in0.0 mm 0.00 in0.0 mm
03:42 AM 32.9°F0.5°C 32.4°F0.2°C 98% Calm Calm -- 29.87 in1011.5 mb 0.00 in0.0 mm 0.00 in0.0 mm 0.00 in0.0 mm
04:03 AM 32.9°F0.5°C 32.4°F0.2°C 98% Calm Calm -- 29.86 in1011.2 mb 0.00 in0.0 mm 0.00 in0.0 mm 0.00 in0.0 mm
04:21 AM 32.9°F0.5°C 32.4°F0.2°C 98% Calm Calm -- 29.85 in1010.8 mb 0.00 in0.0 mm 0.00 in0.0 mm 0.00 in0.0 mm
04:42 AM 32.9°F0.5°C 32.4°F0.2°C 98% Calm Calm -- 29.83 in1010.2 mb 0.00 in0.0 mm 0.00 in0.0 mm 0.00 in0.0 mm
05:03 AM 33.1°F0.6°C 32.8°F0.4°C 99% Calm Calm -- 29.83 in1010.2 mb 0.00 in0.0 mm 0.00 in0.0 mm 0.00 in0.0 mm
05:21 AM 32.6°F0.3°C 32.1°F0.1°C 98% Calm Calm -- 29.83 in1010.2 mb 0.00 in0.0 mm 0.00 in0.0 mm 0.00 in0.0 mm
05:42 AM 32.6°F0.3°C 32.2°F0.1°C 98% Calm Calm -- 29.81 in1009.5 mb 0.00 in0.0 mm 0.00 in0.0 mm 0.00 in0.0 mm
06:03 AM 32.9°F0.5°C 32.6°F0.3°C 99% Calm Calm -- 29.80 in1009.1 mb 0.00 in0.0 mm 0.00 in0.0 mm 0.00 in0.0 mm
06:21 AM 32.7°F0.4°C 32.3°F0.2°C 99% Calm Calm -- 29.80 in1009.1 mb 0.00 in0.0 mm 0.00 in0.0 mm 0.00 in0.0 mm
06:42 AM 31.5°F-0.3°C 31.2°F-0.4°C 99% Calm Calm -- 29.82 in1009.8 mb 0.00 in0.0 mm 0.00 in0.0 mm 0.00 in0.0 mm
07:03 AM 31.5°F-0.3°C 31.3°F-0.4°C 99% Calm Calm -- 29.82 in1009.8 mb 0.00 in0.0 mm 0.00 in0.0 mm 0.00 in0.0 mm
07:21 AM 32.1°F0.1°C 31.8°F-0.1°C 99% Calm Calm -- 29.80 in1009.1 mb 0.00 in0.0 mm 0.00 in0.0 mm 0.00 in0.0 mm
08:03 AM 33.8°F1.0°C 33.3°F0.7°C 98% Calm Calm -- 29.76 in1007.8 mb 0.00 in0.0 mm 0.00 in0.0 mm 0.00 in0.0 mm
08:21 AM 33.5°F0.8°C 33.1°F0.6°C 99% Calm Calm -- 29.77 in1008.1 mb 0.00 in0.0 mm 0.00 in0.0 mm 0.00 in0.0 mm
08:42 AM 34.0°F1.1°C 33.6°F0.9°C 98% Calm Calm -- 29.76 in1007.8 mb 0.00 in0.0 mm 0.00 in0.0 mm 0.00 in0.0 mm
09:03 AM 33.6°F0.9°C 33.2°F0.7°C 99% Calm Calm -- 29.78 in1008.5 mb 0.00 in0.0 mm 0.00 in0.0 mm 0.00 in0.0 mm
09:21 AM 32.6°F0.3°C 32.2°F0.1°C 98% Calm Calm -- 29.81 in1009.5 mb 0.00 in0.0 mm 0.00 in0.0 mm 0.00 in0.0 mm
09:42 AM 32.3°F0.2°C 32.0°F0.0°C 99% Calm Calm -- 29.85 in1010.8 mb 0.00 in0.0 mm 0.00 in0.0 mm 0.00 in0.0 mm
10:03 AM 32.7°F0.4°C 32.5°F0.3°C 99% Calm Calm -- 29.86 in1011.2 mb 0.00 in0.0 mm 0.00 in0.0 mm 0.00 in0.0 mm
10:21 AM 33.7°F0.9°C 33.4°F0.8°C 99% Calm Calm -- 29.85 in1010.8 mb 0.00 in0.0 mm 0.00 in0.0 mm 0.00 in0.0 mm
10:42 AM 36.3°F2.4°C 35.6°F2.0°C 97% Calm Calm -- 29.80 in1009.1 mb 0.00 in0.0 mm 0.00 in0.0 mm 0.00 in0.0 mm
11:03 AM 37.1°F2.8°C 36.5°F2.5°C 97% Calm Calm -- 29.79 in1008.8 mb 0.00 in0.0 mm 0.00 in0.0 mm 0.00 in0.0 mm
11:21 AM 38.3°F3.5°C 37.9°F3.3°C 98% Calm Calm -- 29.77 in1008.1 mb 0.00 in0.0 mm 0.00 in0.0 mm 0.00 in0.0 mm
11:42 AM 46.7°F8.2°C 44.3°F6.8°C 92% 1.0 mph SW1.6 kmh SW 5.0 mph8.0 kmh 29.68 in1005.1 mb 0.06 in1.5 mm 0.17 in4.3 mm 0.06 in1.5 mm
12:03 PM 47.0°F8.3°C 37.8°F3.2°C 70% 1.0 mph WSW1.6 kmh WSW 4.0 mph6.4 kmh 29.68 in1005.1 mb 0.21 in5.3 mm 0.23 in5.8 mm 0.21 in5.3 mm
12:21 PM 45.9°F7.7°C 35.1°F1.7°C 66% 4.0 mph WSW6.4 kmh WSW 7.0 mph11.3 kmh 29.70 in1005.8 mb 0.26 in6.6 mm 0.17 in4.3 mm 0.26 in6.6 mm
12:42 PM 44.8°F7.1°C 36.0°F2.2°C 71% 4.0 mph S6.4 kmh S 6.0 mph9.7 kmh 29.72 in1006.4 mb 0.24 in6.1 mm 0.00 in0.0 mm 0.30 in7.6 mm
01:03 PM 44.7°F7.1°C 36.4°F2.4°C 73% 5.0 mph W8.0 kmh W 8.0 mph12.9 kmh 29.72 in1006.4 mb 0.09 in2.3 mm 0.00 in0.0 mm 0.31 in7.9 mm
01:21 PM 45.3°F7.4°C 36.4°F2.4°C 71% 5.0 mph S8.0 kmh S 9.0 mph14.5 kmh 29.71 in1006.1 mb 0.05 in1.3 mm 0.00 in0.0 mm 0.31 in7.9 mm
01:42 PM 45.6°F7.6°C 36.0°F2.2°C 69% 6.0 mph S9.7 kmh S 15.0 mph24.1 kmh 29.70 in1005.8 mb 0.01 in0.3 mm 0.00 in0.0 mm 0.31 in7.9 mm
02:21 PM 43.8°F6.6°C 33.1°F0.6°C 66% 6.0 mph S9.7 kmh S 14.0 mph22.5 kmh 29.72 in1006.4 mb 0.00 in0.0 mm 0.00 in0.0 mm 0.31 in7.9 mm
02:42 PM 44.1°F6.7°C 32.8°F0.4°C 64% 5.0 mph S8.0 kmh S 8.0 mph12.9 kmh 29.72 in1006.4 mb 0.00 in0.0 mm 0.00 in0.0 mm 0.31 in7.9 mm
03:21 PM 43.8°F6.6°C 31.4°F-0.3°C 61% 6.0 mph SSE9.7 kmh SSE 11.0 mph17.7 kmh 29.72 in1006.4 mb 0.00 in0.0 mm 0.00 in0.0 mm 0.31 in7.9 mm
03:42 PM 43.4°F6.3°C 30.7°F-0.7°C 60% 5.0 mph S8.0 kmh S 10.0 mph16.1 kmh 29.74 in1007.1 mb 0.00 in0.0 mm 0.00 in0.0 mm 0.31 in7.9 mm
04:03 PM 43.1°F6.2°C 30.2°F-1.0°C 60% 4.0 mph SSW6.4 kmh SSW 11.0 mph17.7 kmh 29.74 in1007.1 mb 0.00 in0.0 mm 0.00 in0.0 mm 0.31 in7.9 mm
04:21 PM 44.2°F6.8°C 23.2°F-4.9°C 43% 6.0 mph E9.7 kmh E 9.0 mph14.5 kmh 29.73 in1006.8 mb 0.00 in0.0 mm 0.00 in0.0 mm 0.31 in7.9 mm
04:42 PM 44.7°F7.1°C 27.8°F-2.3°C 51% 4.0 mph E6.4 kmh E 6.0 mph9.7 kmh 29.73 in1006.8 mb 0.00 in0.0 mm 0.00 in0.0 mm 0.31 in7.9 mm
05:03 PM 45.4°F7.4°C 27.1°F-2.7°C 48% 5.0 mph E8.0 kmh E 8.0 mph12.9 kmh 29.73 in1006.8 mb 0.00 in0.0 mm 0.00 in0.0 mm 0.31 in7.9 mm
05:21 PM 42.4°F5.8°C 28.5°F-1.9°C 58% 3.0 mph E4.8 kmh E 5.0 mph8.0 kmh 29.77 in1008.1 mb 0.00 in0.0 mm 0.00 in0.0 mm 0.31 in7.9 mm
05:42 PM 41.2°F5.1°C 28.4°F-2.0°C 60% 2.0 mph E3.2 kmh E 5.0 mph8.0 kmh 29.79 in1008.8 mb 0.00 in0.0 mm 0.00 in0.0 mm 0.31 in7.9 mm
06:03 PM 39.6°F4.2°C 29.8°F-1.2°C 68% 1.0 mph E1.6 kmh E 3.0 mph4.8 kmh 29.81 in1009.5 mb 0.00 in0.0 mm 0.00 in0.0 mm 0.31 in7.9 mm
06:21 PM 38.4°F3.6°C 30.1°F-1.1°C 72% 1.0 mph E1.6 kmh E 2.0 mph3.2 kmh 29.83 in1010.2 mb 0.00 in0.0 mm 0.00 in0.0 mm 0.31 in7.9 mm
06:42 PM 37.3°F2.9°C 28.0°F-2.2°C 69% 2.0 mph E3.2 kmh E 4.0 mph6.4 kmh 29.86 in1011.2 mb 0.00 in0.0 mm 0.00 in0.0 mm 0.31 in7.9 mm
07:03 PM 36.1°F2.3°C 24.9°F-3.9°C 63% 2.0 mph E3.2 kmh E 4.0 mph6.4 kmh 29.88 in1011.9 mb 0.00 in0.0 mm 0.00 in0.0 mm 0.31 in7.9 mm
07:21 PM 35.1°F1.7°C 24.1°F-4.4°C 64% 1.0 mph NNW1.6 kmh NNW 4.0 mph6.4 kmh 29.91 in1012.9 mb 0.00 in0.0 mm 0.00 in0.0 mm 0.31 in7.9 mm
07:42 PM 34.7°F1.5°C 23.3°F-4.8°C 63% 2.0 mph N3.2 kmh N 4.0 mph6.4 kmh 29.92 in1013.2 mb 0.00 in0.0 mm 0.00 in0.0 mm 0.31 in7.9 mm
08:03 PM 34.5°F1.4°C 22.0°F-5.6°C 60% 2.0 mph NE3.2 kmh NE 5.0 mph8.0 kmh 29.93 in1013.5 mb 0.00 in0.0 mm 0.00 in0.0 mm 0.31 in7.9 mm
08:21 PM 34.3°F1.3°C 19.7°F-6.8°C 55% 4.0 mph NE6.4 kmh NE 8.0 mph12.9 kmh 29.93 in1013.5 mb 0.00 in0.0 mm 0.00 in0.0 mm 0.31 in7.9 mm
08:42 PM 35.3°F1.8°C 19.5°F-6.9°C 52% 3.0 mph NE4.8 kmh NE 8.0 mph12.9 kmh 29.92 in1013.2 mb 0.00 in0.0 mm 0.00 in0.0 mm 0.31 in7.9 mm
09:21 PM 34.5°F1.4°C 16.3°F-8.7°C 47% 2.0 mph NE3.2 kmh NE 4.0 mph6.4 kmh 29.95 in1014.2 mb 0.00 in0.0 mm 0.00 in0.0 mm 0.31 in7.9 mm
09:42 PM 33.4°F0.8°C 17.0°F-8.3°C 50% 2.0 mph NE3.2 kmh NE 5.0 mph8.0 kmh 29.97 in1014.9 mb 0.00 in0.0 mm 0.00 in0.0 mm 0.31 in7.9 mm
10:03 PM 33.5°F0.8°C 16.5°F-8.6°C 49% 2.0 mph ENE3.2 kmh ENE 5.0 mph8.0 kmh 29.97 in1014.9 mb 0.00 in0.0 mm 0.00 in0.0 mm 0.31 in7.9 mm
10:21 PM 33.3°F0.7°C 16.3°F-8.7°C 49% 1.0 mph NE1.6 kmh NE 4.0 mph6.4 kmh 29.98 in1015.2 mb 0.00 in0.0 mm 0.00 in0.0 mm 0.31 in7.9 mm
10:42 PM 33.3°F0.7°C 15.6°F-9.1°C 48% 2.0 mph NE3.2 kmh NE 4.0 mph6.4 kmh 29.98 in1015.2 mb 0.00 in0.0 mm 0.00 in0.0 mm 0.31 in7.9 mm
11:03 PM 33.0°F0.6°C 14.9°F-9.5°C 47% 3.0 mph NE4.8 kmh NE 8.0 mph12.9 kmh 29.99 in1015.6 mb 0.00 in0.0 mm 0.00 in0.0 mm 0.31 in7.9 mm
11:21 PM 33.4°F0.8°C 13.7°F-10.2°C 44% 4.0 mph NE6.4 kmh NE 5.0 mph8.0 kmh 29.99 in1015.6 mb 0.00 in0.0 mm 0.00 in0.0 mm 0.31 in7.9 mm
11:42 PM 33.3°F0.7°C 13.2°F-10.4°C 43% 6.0 mph ENE9.7 kmh ENE 10.0 mph16.1 kmh 30.00 in1015.9 mb 0.00 in0.0 mm 0.00 in0.0 mm 0.31 in7.9 mm